Time;durP1;ratioP1;P1;durP2;ratioP2;P2;SDS_P1;SDS_P2;PMS_P1;PMS_P2;Temp;Humidity;BMP_temperature;BMP_pressure;BME280_temperature;BME280_humidity;BME280_pressure;Samples;Min_cycle;Max_cycle;Signal;HPM_P1;HPM_P2
2021/04/25 00:02:56;;;;;;;5.90;2.70;;;12.90;39.60;;;;;;10192760;28;20054;-56
2021/04/25 00:07:47;;;;;;;4.30;1.98;;;12.70;40.00;;;;;;10206523;28;20024;-56
2021/04/25 00:12:43;;;;;;;4.93;2.22;;;12.70;40.20;;;;;;10207187;28;20089;-54
2021/04/25 00:17:34;;;;;;;3.50;2.67;;;12.40;40.90;;;;;;10179292;28;20077;-54
2021/04/25 00:22:25;;;;;;;3.72;2.22;;;12.30;41.70;;;;;;10194317;28;20024;-56
2021/04/25 00:27:15;;;;;;;4.38;2.00;;;12.20;41.90;;;;;;10194206;28;20742;-57
2021/04/25 00:32:06;;;;;;;4.18;2.15;;;12.20;42.30;;;;;;10207223;28;20156;-50
2021/04/25 00:36:57;;;;;;;3.35;1.95;;;12.20;41.80;;;;;;10182725;28;20036;-51
2021/04/25 00:41:48;;;;;;;3.65;2.33;;;12.20;42.50;;;;;;10184733;28;20034;-53
2021/04/25 00:46:39;;;;;;;3.05;2.33;;;12.10;42.70;;;;;;10199025;28;20048;-55
2021/04/25 00:51:31;;;;;;;5.20;2.20;;;12.10;42.60;;;;;;10216175;27;20043;-52
2021/04/25 00:56:22;;;;;;;3.35;2.22;;;12.00;43.00;;;;;;10199659;27;20023;-50
2021/04/25 01:01:13;;;;;;;4.10;2.50;;;12.10;42.30;;;;;;10214019;27;20076;-50
2021/04/25 01:06:04;;;;;;;3.38;2.47;;;12.00;42.90;;;;;;10209109;27;20019;-49
2021/04/25 01:10:55;;;;;;;5.00;2.47;;;12.00;43.10;;;;;;10207156;27;20505;-49
2021/04/25 01:15:46;;;;;;;4.45;2.30;;;11.90;43.60;;;;;;10198420;27;20027;-53
2021/04/25 01:20:37;;;;;;;5.03;2.50;;;11.70;44.40;;;;;;10179485;27;20121;-50
2021/04/25 01:25:28;;;;;;;5.45;2.60;;;11.70;44.40;;;;;;10212091;27;20379;-49
2021/04/25 01:30:25;;;;;;;4.75;2.42;;;11.60;44.60;;;;;;10209544;27;20042;-55
2021/04/25 01:35:22;;;;;;;5.03;3.30;;;11.50;45.40;;;;;;10211331;27;20049;-49
2021/04/25 01:40:14;;;;;;;4.45;2.72;;;11.40;45.70;;;;;;10209034;27;20108;-55
2021/04/25 01:45:05;;;;;;;4.43;1.83;;;11.40;46.30;;;;;;10186110;27;20057;-51
2021/04/25 01:49:56;;;;;;;4.22;2.67;;;11.40;46.70;;;;;;10207120;27;20475;-49
2021/04/25 01:54:47;;;;;;;6.22;2.75;;;11.30;46.10;;;;;;10219694;27;20559;-50
2021/04/25 01:59:38;;;;;;;5.00;2.22;;;11.30;46.50;;;;;;10206490;27;20028;-50
2021/04/25 02:04:28;;;;;;;4.47;2.28;;;11.30;46.70;;;;;;10201622;27;20070;-49
2021/04/25 02:09:19;;;;;;;4.32;2.47;;;11.20;46.90;;;;;;10217442;27;20181;-49
2021/04/25 02:14:10;;;;;;;6.65;2.40;;;11.10;47.20;;;;;;10206815;27;20176;-51
2021/04/25 02:19:01;;;;;;;4.35;2.28;;;11.00;47.50;;;;;;10207347;27;20030;-50
2021/04/25 02:23:54;;;;;;;3.80;2.42;;;11.00;47.20;;;;;;10204916;27;20030;-58
2021/04/25 02:28:45;;;;;;;4.95;2.63;;;11.10;47.10;;;;;;10217352;27;20031;-54
2021/04/25 02:33:35;;;;;;;4.30;2.58;;;11.10;46.70;;;;;;10218990;27;20906;-52
2021/04/25 02:38:26;;;;;;;5.00;2.47;;;11.10;46.50;;;;;;10211692;27;20449;-52
2021/04/25 02:43:17;;;;;;;4.95;2.25;;;11.10;46.50;;;;;;10203727;27;20055;-52
2021/04/25 02:48:09;;;;;;;4.40;2.42;;;10.90;48.00;;;;;;10198192;27;20047;-52
2021/04/25 02:53:00;;;;;;;6.63;2.60;;;10.60;48.70;;;;;;10215175;27;20031;-52
2021/04/25 02:57:51;;;;;;;5.25;2.75;;;10.50;49.50;;;;;;10220163;27;20514;-51
2021/04/25 03:02:42;;;;;;;6.07;2.38;;;10.50;49.30;;;;;;10211569;27;20028;-51
2021/04/25 03:07:33;;;;;;;3.70;2.97;;;10.50;48.50;;;;;;10220178;27;20042;-49
2021/04/25 03:12:23;;;;;;;8.48;3.63;;;10.60;48.40;;;;;;10209877;27;20040;-57
2021/04/25 03:17:14;;;;;;;4.65;2.47;;;10.50;48.70;;;;;;10212987;27;20035;-54
2021/04/25 03:22:05;;;;;;;4.63;2.30;;;10.40;48.80;;;;;;10219793;27;20124;-50
2021/04/25 03:26:56;;;;;;;3.78;2.28;;;10.40;49.30;;;;;;10211158;27;20996;-50
2021/04/25 03:31:47;;;;;;;4.82;2.78;;;10.40;48.30;;;;;;10217890;27;20050;-51
2021/04/25 03:36:38;;;;;;;5.75;2.85;;;10.40;48.50;;;;;;10195438;27;20541;-48
2021/04/25 03:41:28;;;;;;;7.50;3.03;;;10.30;49.30;;;;;;10211587;27;20034;-52
2021/04/25 03:46:19;;;;;;;4.82;2.78;;;10.20;49.50;;;;;;10201349;27;20744;-55
2021/04/25 03:51:10;;;;;;;6.63;2.75;;;10.10;49.80;;;;;;10210780;27;21155;-53
2021/04/25 03:56:00;;;;;;;5.22;3.03;;;10.00;49.80;;;;;;10197810;27;20024;-55
2021/04/25 04:00:51;;;;;;;9.40;2.90;;;10.00;50.10;;;;;;10211070;27;20073;-50
2021/04/25 04:05:42;;;;;;;6.82;3.28;;;10.00;50.50;;;;;;10188226;28;20115;-57
2021/04/25 04:10:33;;;;;;;6.50;2.67;;;10.00;50.30;;;;;;10204531;28;20038;-55
2021/04/25 04:15:23;;;;;;;6.82;2.58;;;9.90;51.10;;;;;;10197332;28;20035;-53
2021/04/25 04:20:15;;;;;;;4.68;2.78;;;9.90;51.40;;;;;;10210639;28;20040;-56
2021/04/25 04:25:06;;;;;;;5.53;2.90;;;9.90;51.20;;;;;;10218966;27;20027;-55
2021/04/25 04:29:57;;;;;;;6.13;2.63;;;9.90;50.90;;;;;;10213512;27;20044;-56
2021/04/25 04:34:47;;;;;;;3.90;2.80;;;10.00;50.50;;;;;;10207818;27;20042;-52
2021/04/25 04:39:38;;;;;;;4.68;2.28;;;10.10;50.60;;;;;;10216956;27;21647;-50
2021/04/25 04:44:29;;;;;;;6.47;2.90;;;10.00;50.50;;;;;;10197354;27;20043;-52
2021/04/25 04:49:20;;;;;;;6.05;2.58;;;10.00;50.10;;;;;;10195276;27;20039;-55
2021/04/25 04:54:10;;;;;;;4.45;2.78;;;10.00;50.70;;;;;;10209788;27;20153;-49
2021/04/25 04:59:01;;;;;;;7.90;2.97;;;10.00;50.30;;;;;;10210445;27;20087;-50
2021/04/25 05:03:52;;;;;;;5.25;2.75;;;9.90;51.20;;;;;;10214373;27;20088;-54
2021/04/25 05:08:43;;;;;;;7.45;3.38;;;9.60;52.10;;;;;;10201270;27;20043;-54
2021/04/25 05:13:34;;;;;;;8.80;2.60;;;9.60;52.00;;;;;;10216668;27;20590;-53
2021/04/25 05:18:24;;;;;;;4.90;2.70;;;9.70;51.70;;;;;;10213574;27;20027;-49
2021/04/25 05:23:15;;;;;;;5.65;2.47;;;9.70;52.00;;;;;;10218199;27;20464;-48
2021/04/25 05:28:06;;;;;;;5.03;2.90;;;9.70;52.10;;;;;;10223519;27;20031;-52
2021/04/25 05:32:57;;;;;;;5.13;3.05;;;9.80;52.10;;;;;;10188079;27;20036;-57
2021/04/25 05:37:48;;;;;;;4.75;2.25;;;9.80;51.90;;;;;;10207076;27;20038;-60
2021/04/25 05:42:39;;;;;;;8.75;3.05;;;9.70;52.20;;;;;;10205463;27;20150;-54
2021/04/25 05:47:30;;;;;;;4.78;2.95;;;9.60;52.50;;;;;;10202093;27;20071;-56
2021/04/25 05:52:21;;;;;;;6.75;3.20;;;9.80;51.80;;;;;;10211016;27;20118;-57
2021/04/25 05:57:11;;;;;;;5.18;2.78;;;9.80;52.30;;;;;;10212729;27;20028;-57
2021/04/25 06:02:06;;;;;;;6.35;2.63;;;9.80;51.90;;;;;;10221120;27;20382;-53
2021/04/25 06:06:57;;;;;;;5.60;3.00;;;9.90;51.60;;;;;;10195849;27;20034;-48
2021/04/25 06:11:48;;;;;;;7.15;3.08;;;9.80;51.70;;;;;;10208835;27;20031;-48
2021/04/25 06:16:39;;;;;;;5.13;2.72;;;9.90;52.30;;;;;;10217550;27;20027;-55
2021/04/25 06:21:30;;;;;;;6.90;3.42;;;9.90;52.20;;;;;;10207931;27;20031;-51
2021/04/25 06:26:21;;;;;;;5.00;3.03;;;10.00;52.10;;;;;;10210333;27;20027;-53
2021/04/25 06:31:13;;;;;;;7.40;2.65;;;10.10;51.70;;;;;;10216392;27;20027;-52
2021/04/25 06:36:04;;;;;;;6.20;2.50;;;10.20;51.50;;;;;;10202205;27;20024;-57
2021/04/25 06:40:55;;;;;;;4.95;3.25;;;10.40;50.60;;;;;;10205714;27;20036;-47
2021/04/25 06:45:46;;;;;;;6.60;3.10;;;10.30;51.20;;;;;;10183297;27;20552;-52
2021/04/25 06:50:37;;;;;;;10.98;3.00;;;10.30;51.60;;;;;;10200687;27;20038;-56
2021/04/25 06:55:28;;;;;;;6.50;3.80;;;10.30;51.70;;;;;;10209267;27;20509;-51
2021/04/25 07:00:22;;;;;;;8.13;3.10;;;10.40;51.70;;;;;;10205052;27;20497;-48
2021/04/25 07:05:14;;;;;;;8.20;4.03;;;10.70;50.90;;;;;;10214901;27;20100;-52
2021/04/25 07:10:07;;;;;;;5.40;3.67;;;10.90;50.10;;;;;;10199768;27;20049;-54
2021/04/25 07:14:58;;;;;;;4.70;2.97;;;11.00;50.00;;;;;;10197198;27;20023;-62
2021/04/25 07:19:49;;;;;;;5.82;2.85;;;10.90;50.20;;;;;;10208157;27;20034;-48
2021/04/25 07:24:39;;;;;;;4.65;2.42;;;11.10;50.30;;;;;;10194711;27;20019;-50
2021/04/25 07:29:31;;;;;;;9.80;4.85;;;11.10;50.30;;;;;;10218158;27;20046;-60
2021/04/25 07:34:21;;;;;;;4.38;2.75;;;11.20;50.30;;;;;;10205382;27;20548;-49
2021/04/25 07:39:13;;;;;;;4.75;2.78;;;11.20;50.10;;;;;;10185226;27;20039;-52
2021/04/25 07:44:04;;;;;;;6.15;3.63;;;11.30;50.10;;;;;;10218018;27;20047;-50
2021/04/25 07:48:54;;;;;;;5.82;3.10;;;11.30;50.10;;;;;;10208430;27;20084;-50
2021/04/25 07:53:45;;;;;;;6.30;3.35;;;11.50;49.70;;;;;;10214928;27;20835;-54
2021/04/25 07:58:36;;;;;;;6.47;3.88;;;11.60;49.80;;;;;;10191667;27;20122;-52
2021/04/25 08:03:27;;;;;;;7.75;3.03;;;11.70;49.60;;;;;;10202879;27;20196;-50
2021/04/25 08:08:17;;;;;;;6.63;4.00;;;11.70;49.60;;;;;;10218685;27;20050;-55
2021/04/25 08:13:08;;;;;;;4.13;3.15;;;11.90;49.40;;;;;;10209606;28;20029;-50
2021/04/25 08:18:01;;;;;;;5.25;3.10;;;12.00;49.40;;;;;;10214007;28;20035;-54
2021/04/25 08:22:51;;;;;;;8.10;4.30;;;12.00;49.20;;;;;;10216041;28;20065;-53
2021/04/25 08:27:43;;;;;;;8.13;3.78;;;12.20;49.00;;;;;;10211204;28;20143;-52
2021/04/25 08:32:34;;;;;;;6.50;3.90;;;12.10;49.20;;;;;;10199941;28;20051;-49
2021/04/25 08:37:24;;;;;;;6.13;4.00;;;12.30;49.00;;;;;;10209049;28;20051;-60
2021/04/25 08:42:15;;;;;;;5.88;3.60;;;12.50;48.60;;;;;;10213707;28;20539;-51
2021/04/25 08:47:06;;;;;;;7.40;4.35;;;12.60;48.40;;;;;;10222243;28;20569;-52
2021/04/25 08:51:57;;;;;;;5.72;3.75;;;12.80;48.20;;;;;;10212276;28;20054;-58
2021/04/25 08:56:48;;;;;;;8.20;3.67;;;12.90;48.00;;;;;;10219805;28;20034;-55
2021/04/25 09:01:39;;;;;;;6.28;4.05;;;12.90;48.00;;;;;;10220260;28;20026;-56
2021/04/25 09:06:30;;;;;;;7.60;3.95;;;13.10;47.60;;;;;;10190505;28;20023;-53
2021/04/25 09:11:35;;;;;;;7.68;3.70;;;13.20;47.30;;;;;;10193777;27;20678;-54
2021/04/25 09:16:27;;;;;;;7.30;3.53;;;13.20;48.00;;;;;;10210595;27;20032;-55
2021/04/25 09:21:17;;;;;;;10.60;4.45;;;13.20;47.30;;;;;;10215690;27;20020;-50
2021/04/25 09:26:10;;;;;;;7.43;4.90;;;13.40;47.10;;;;;;10216383;27;20015;-55
2021/04/25 09:31:15;;;;;;;9.57;4.30;;;13.60;46.50;;;;;;10210318;27;20110;-53
2021/04/25 09:36:10;;;;;;;6.00;3.42;;;13.70;46.30;;;;;;10213638;27;20445;-50
2021/04/25 09:41:00;;;;;;;3.80;2.67;;;13.80;45.90;;;;;;10206347;27;20024;-56
2021/04/25 09:45:57;;;;;;;6.13;3.50;;;13.80;45.40;;;;;;10187492;27;20738;-54
2021/04/25 09:51:11;;;;;;;8.18;3.20;;;13.80;45.10;;;;;;10176648;28;20032;-50
2021/04/25 09:56:01;;;;;;;6.78;3.28;;;14.00;44.20;;;;;;10178895;28;20150;-55
2021/04/25 10:00:52;;;;;;;9.15;4.22;;;14.10;44.50;;;;;;10143520;28;20043;-51
2021/04/25 10:06:06;;;;;;;15.98;11.00;;;14.20;44.10;;;;;;10160994;28;20039;-61
2021/04/25 10:10:57;;;;;;;28.38;17.38;;;14.30;43.60;;;;;;10172644;28;20039;-53
2021/04/25 10:15:48;;;;;;;9.88;5.18;;;14.50;43.20;;;;;;10174930;28;20028;-50
2021/04/25 10:20:39;;;;;;;9.45;4.63;;;14.60;43.10;;;;;;10165774;28;20043;-59
2021/04/25 10:25:35;;;;;;;9.20;3.97;;;14.60;43.00;;;;;;10150977;28;20031;-56
2021/04/25 10:30:37;;;;;;;6.55;3.58;;;14.60;43.10;;;;;;10176957;28;20040;-59
2021/04/25 10:35:29;;;;;;;5.97;3.35;;;14.60;43.10;;;;;;10173477;28;20394;-56
2021/04/25 10:40:31;;;;;;;5.40;3.42;;;14.60;43.10;;;;;;10139016;28;20028;-53
2021/04/25 10:45:29;;;;;;;7.25;3.55;;;14.70;42.60;;;;;;10181966;27;20047;-55
2021/04/25 10:50:20;;;;;;;8.85;4.30;;;14.90;42.50;;;;;;10206436;27;20043;-55
2021/04/25 10:55:10;;;;;;;7.15;3.20;;;15.00;42.20;;;;;;10204854;27;20309;-54
2021/04/25 11:00:29;;;;;;;4.82;3.50;;;15.10;41.60;;;;;;10218716;27;20039;-53
2021/04/25 11:05:41;;;;;;;6.10;3.20;;;15.10;41.30;;;;;;10197103;27;20826;-58
2021/04/25 11:10:54;;;;;;;8.48;3.88;;;15.30;40.50;;;;;;10202959;27;20162;-48
2021/04/25 11:15:49;;;;;;;6.80;3.50;;;15.40;40.60;;;;;;10186706;27;20024;-49
2021/04/25 11:20:40;;;;;;;;;;;15.50;40.10;;;;;;10195747;27;20032;-48
2021/04/25 11:25:32;;;;;;;5.82;2.88;;;15.60;39.40;;;;;;10198866;27;19915;-59
2021/04/25 11:30:38;;;;;;;5.90;2.90;;;15.60;40.10;;;;;;10197977;27;20112;-51
2021/04/25 11:35:29;;;;;;;5.55;2.60;;;15.90;38.70;;;;;;10194448;27;20027;-50
2021/04/25 11:40:21;;;;;;;6.72;3.20;;;15.90;38.80;;;;;;10197575;27;20027;-54
2021/04/25 11:45:19;;;;;;;5.28;3.00;;;15.90;38.60;;;;;;10200299;27;20422;-51
2021/04/25 11:50:11;;;;;;;28.60;18.33;;;16.10;38.00;;;;;;10195185;27;20066;-57
2021/04/25 11:55:15;;;;;;;61.58;33.83;;;16.20;38.10;;;;;;10203795;27;20027;-51
2021/04/25 12:00:13;;;;;;;11.02;4.57;;;16.70;37.70;;;;;;10196569;27;20027;-55
2021/04/25 12:05:12;;;;;;;5.40;3.92;;;16.40;36.90;;;;;;10205428;27;20472;-54
2021/04/25 12:10:10;;;;;;;6.55;3.22;;;16.40;36.60;;;;;;10208054;28;20031;-55
2021/04/25 12:15:03;;;;;;;4.78;2.80;;;16.70;36.40;;;;;;10198089;28;20126;-51
2021/04/25 12:19:53;;;;;;;5.05;2.55;;;17.10;35.90;;;;;;10204532;27;20035;-52
2021/04/25 12:24:44;;;;;;;5.25;2.67;;;17.30;35.70;;;;;;10200275;28;20023;-52
2021/04/25 12:29:36;;;;;;;3.90;2.28;;;17.60;35.00;;;;;;10203369;27;20043;-53
2021/04/25 12:34:29;;;;;;;5.68;2.75;;;18.00;35.10;;;;;;10200118;28;20165;-52
2021/04/25 12:39:20;;;;;;;4.43;2.08;;;18.40;34.80;;;;;;10199251;28;20020;-53
2021/04/25 12:44:15;;;;;;;4.55;2.63;;;18.80;34.70;;;;;;10210106;27;20059;-53
2021/04/25 12:49:09;;;;;;;3.30;2.28;;;19.10;34.00;;;;;;10207685;27;20390;-55
2021/04/25 12:54:04;;;;;;;3.90;2.60;;;19.40;33.60;;;;;;10217460;27;20488;-54
2021/04/25 12:59:03;;;;;;;3.78;2.45;;;19.60;33.00;;;;;;10202939;27;20058;-54
2021/04/25 13:03:54;;;;;;;4.90;2.30;;;19.70;31.40;;;;;;10202910;27;20551;-50
2021/04/25 13:08:45;;;;;;;2.92;2.38;;;20.30;30.30;;;;;;10206305;27;20077;-56
2021/04/25 13:13:36;;;;;;;3.53;2.25;;;21.30;28.90;;;;;;10204247;27;20039;-53
2021/04/25 13:18:36;;;;;;;5.43;3.15;;;22.30;27.60;;;;;;10207461;27;20019;-53
2021/04/25 13:23:33;;;;;;;2.85;1.83;;;23.60;25.20;;;;;;10211388;27;20023;-57
2021/04/25 13:28:27;;;;;;;2.75;2.00;;;23.80;24.70;;;;;;10216789;27;20126;-55
2021/04/25 13:33:21;;;;;;;8.98;2.38;;;24.20;24.40;;;;;;10222798;27;20042;-53
2021/04/25 13:43:11;;;;;;;2.78;2.30;;;25.60;23.70;;;;;;10212978;27;20088;-55
2021/04/25 13:48:03;;;;;;;3.00;1.98;;;26.80;23.50;;;;;;10219752;27;20111;-50
2021/04/25 13:52:54;;;;;;;3.40;2.47;;;26.80;22.80;;;;;;10211641;27;20350;-55
2021/04/25 13:57:46;;;;;;;3.40;2.40;;;26.40;22.70;;;;;;10219152;27;20027;-58
2021/04/25 14:02:36;;;;;;;3.50;2.30;;;26.20;22.50;;;;;;10212681;27;20031;-57
2021/04/25 14:07:27;;;;;;;2.55;2.15;;;26.80;22.30;;;;;;10216111;27;20389;-58
2021/04/25 14:12:18;;;;;;;5.18;2.20;;;27.00;22.00;;;;;;10220697;27;20562;-55
2021/04/25 14:17:09;;;;;;;2.95;2.22;;;27.30;21.80;;;;;;10201824;27;20031;-55
2021/04/25 14:22:00;;;;;;;3.15;2.63;;;26.60;21.40;;;;;;10221611;27;20415;-55
2021/04/25 14:26:52;;;;;;;3.97;2.40;;;26.30;21.40;;;;;;10214438;27;20027;-54
2021/04/25 14:31:43;;;;;;;3.70;2.65;;;26.90;21.50;;;;;;10189266;27;20118;-56
2021/04/25 14:36:33;;;;;;;2.85;2.13;;;26.40;21.40;;;;;;10209768;27;20256;-56
2021/04/25 14:41:24;;;;;;;2.78;2.33;;;25.80;21.30;;;;;;10199030;27;20055;-57
2021/04/25 14:46:15;;;;;;;3.03;1.90;;;25.60;20.90;;;;;;10217109;27;20099;-53
2021/04/25 14:51:06;;;;;;;3.78;2.45;;;25.80;21.00;;;;;;10206766;27;20212;-57
2021/04/25 14:55:57;;;;;;;2.90;2.00;;;25.60;20.80;;;;;;10201132;27;20390;-53
2021/04/25 15:00:48;;;;;;;2.75;2.13;;;26.20;20.70;;;;;;10213188;27;20069;-53
2021/04/25 15:05:39;;;;;;;2.88;1.85;;;26.10;20.60;;;;;;10200226;27;20036;-56
2021/04/25 15:10:30;;;;;;;4.45;2.10;;;25.40;20.70;;;;;;10192557;27;20038;-56
2021/04/25 15:15:21;;;;;;;4.40;2.00;;;25.20;20.60;;;;;;10207979;27;20055;-58
2021/04/25 15:20:13;;;;;;;2.28;1.95;;;25.80;20.50;;;;;;10198289;27;20019;-54
2021/04/25 15:25:06;;;;;;;3.40;2.25;;;26.40;20.30;;;;;;10213807;27;20028;-55
2021/04/25 15:29:57;;;;;;;3.45;2.28;;;26.60;20.00;;;;;;10204274;27;20023;-52
2021/04/25 15:34:52;;;;;;;2.38;2.15;;;26.60;20.00;;;;;;10202730;27;20472;-52
2021/04/25 15:39:43;;;;;;;2.58;2.17;;;26.00;19.70;;;;;;10207191;27;20027;-53
2021/04/25 15:44:34;;;;;;;2.15;1.92;;;26.40;19.50;;;;;;10199721;27;20139;-58
2021/04/25 15:49:25;;;;;;;3.15;1.70;;;26.30;19.20;;;;;;10205424;27;20029;-58
2021/04/25 15:54:16;;;;;;;3.33;2.00;;;26.50;19.00;;;;;;10200744;27;20402;-53
2021/04/25 15:59:07;;;;;;;2.83;1.75;;;27.40;18.50;;;;;;10200710;27;20027;-55
2021/04/25 16:03:57;;;;;;;3.28;2.22;;;27.60;18.00;;;;;;10210172;27;20465;-55
2021/04/25 16:08:48;;;;;;;3.22;2.92;;;28.10;18.00;;;;;;10195996;28;20026;-54
2021/04/25 16:13:39;;;;;;;3.00;2.50;;;28.50;17.70;;;;;;10207684;28;20473;-55
2021/04/25 16:18:29;;;;;;;3.55;2.00;;;29.20;17.70;;;;;;10199815;27;20024;-55
2021/04/25 16:23:20;;;;;;;4.22;1.90;;;30.00;17.70;;;;;;10203511;27;20028;-55
2021/04/25 16:28:11;;;;;;;5.05;2.70;;;29.60;17.90;;;;;;10212042;27;20398;-56
2021/04/25 16:33:02;;;;;;;4.82;2.40;;;29.20;18.10;;;;;;10182154;27;20432;-64
2021/04/25 16:37:53;;;;;;;4.80;2.08;;;29.20;18.10;;;;;;10213647;27;20019;-59
2021/04/25 16:42:45;;;;;;;67.47;57.20;;;29.80;18.00;;;;;;10204830;27;20178;-59
2021/04/25 16:47:37;;;;;;;7.18;4.22;;;30.60;18.20;;;;;;10207431;27;20039;-52
2021/04/25 16:52:27;;;;;;;4.88;2.95;;;30.20;18.30;;;;;;10201207;27;20020;-55
2021/04/25 16:57:19;;;;;;;7.82;2.50;;;29.20;18.70;;;;;;10210154;27;20015;-50
2021/04/25 17:02:10;;;;;;;2.42;2.15;;;29.20;19.00;;;;;;10216027;27;20035;-53
2021/04/25 17:07:03;;;;;;;5.82;2.45;;;29.30;19.10;;;;;;10211321;27;20463;-55
2021/04/25 17:11:54;;;;;;;2.50;2.17;;;29.30;19.20;;;;;;10184862;27;20130;-58
2021/04/25 17:16:44;;;;;;;3.33;2.28;;;29.60;19.20;;;;;;10207716;27;20639;-51
2021/04/25 17:21:35;;;;;;;5.60;2.50;;;29.10;19.20;;;;;;10209464;27;20413;-58
2021/04/25 17:26:26;;;;;;;4.05;2.13;;;28.70;19.20;;;;;;10204709;27;20141;-59
2021/04/25 17:31:18;;;;;;;3.38;2.08;;;25.20;20.80;;;;;;10200094;27;20127;-56
2021/04/25 17:36:09;;;;;;;3.63;1.98;;;22.20;23.30;;;;;;10209791;27;20036;-57
2021/04/25 17:41:00;;;;;;;3.92;1.80;;;20.40;24.70;;;;;;10212819;27;20038;-61
2021/04/25 17:45:51;;;;;;;5.18;1.88;;;19.70;25.40;;;;;;10179412;27;20105;-55
2021/04/25 17:50:42;;;;;;;3.10;2.08;;;19.40;25.40;;;;;;10200780;27;20081;-53
2021/04/25 17:55:33;;;;;;;1.98;1.60;;;19.10;25.60;;;;;;10203519;27;20060;-52
2021/04/25 18:00:27;;;;;;;2.70;1.60;;;19.00;25.80;;;;;;10204004;27;20031;-54
2021/04/25 18:05:18;;;;;;;3.30;1.93;;;18.80;26.00;;;;;;10187273;27;20024;-51
2021/04/25 18:10:12;;;;;;;4.13;1.85;;;18.60;26.20;;;;;;10201968;27;20031;-61
2021/04/25 18:15:05;;;;;;;4.45;1.90;;;18.30;26.40;;;;;;10207381;27;20430;-63
2021/04/25 18:19:56;;;;;;;3.60;2.33;;;18.00;26.70;;;;;;10220037;27;20481;-64
2021/04/25 18:24:47;;;;;;;2.55;1.65;;;17.80;26.50;;;;;;10204272;27;20116;-61
2021/04/25 18:29:38;;;;;;;3.65;1.58;;;17.50;26.70;;;;;;10190505;27;20164;-65
2021/04/25 18:34:29;;;;;;;2.70;2.17;;;17.30;26.80;;;;;;10185262;27;20080;-65
2021/04/25 18:39:20;;;;;;;2.67;1.48;;;17.20;26.80;;;;;;10194427;27;21381;-62
2021/04/25 18:44:11;;;;;;;3.90;1.83;;;17.00;26.90;;;;;;10196776;27;20867;-64
2021/04/25 18:49:02;;;;;;;1.85;1.20;;;16.80;26.90;;;;;;10187445;27;20032;-62
2021/04/25 18:53:55;;;;;;;3.30;1.40;;;16.70;26.90;;;;;;10192748;27;20043;-62
2021/04/25 18:58:47;;;;;;;4.32;1.67;;;16.60;26.90;;;;;;10189449;27;20052;-55
2021/04/25 19:03:39;;;;;;;2.53;1.10;;;16.50;27.00;;;;;;10190951;27;20486;-61
2021/04/25 19:08:30;;;;;;;2.85;1.38;;;16.40;26.90;;;;;;10168894;28;20670;-61
2021/04/25 19:13:21;;;;;;;6.25;1.45;;;16.40;26.80;;;;;;10181250;28;20032;-61
2021/04/25 19:18:12;;;;;;;2.53;1.23;;;16.20;26.90;;;;;;10183949;27;20027;-64
2021/04/25 19:23:03;;;;;;;2.65;1.40;;;16.00;26.90;;;;;;10179598;28;20043;-62
2021/04/25 19:27:54;;;;;;;1.95;1.05;;;15.90;26.80;;;;;;10194089;27;20043;-63
2021/04/25 19:32:46;;;;;;;4.13;2.05;;;15.70;26.90;;;;;;10180047;28;20028;-62
2021/04/25 19:37:37;;;;;;;1.63;0.95;;;15.60;26.90;;;;;;10183661;27;20036;-64
2021/04/25 19:42:28;;;;;;;3.38;1.27;;;15.60;26.90;;;;;;10183031;27;20043;-63
2021/04/25 19:47:21;;;;;;;3.65;1.90;;;15.50;26.90;;;;;;10190075;27;20646;-65
2021/04/25 19:52:12;;;;;;;1.50;1.20;;;15.30;27.00;;;;;;10170962;27;20102;-64
2021/04/25 19:57:04;;;;;;;3.60;1.00;;;15.20;27.10;;;;;;10174142;27;20027;-62
2021/04/25 20:01:54;;;;;;;3.28;1.30;;;15.10;27.10;;;;;;10171044;28;20127;-58
2021/04/25 20:06:45;;;;;;;2.65;1.00;;;15.10;27.00;;;;;;10175571;28;20062;-58
2021/04/25 20:11:37;;;;;;;4.88;1.40;;;15.00;27.20;;;;;;10177781;28;20047;-61
2021/04/25 20:16:27;;;;;;;5.68;2.08;;;14.90;27.20;;;;;;10186497;28;20032;-58
2021/04/25 20:21:18;;;;;;;2.88;1.40;;;14.90;27.30;;;;;;10168103;28;20047;-62
2021/04/25 20:26:10;;;;;;;3.80;1.38;;;14.70;27.50;;;;;;10177813;28;20530;-61
2021/04/25 20:31:03;;;;;;;1.52;1.10;;;14.50;27.70;;;;;;10177860;28;20027;-57
2021/04/25 20:35:55;;;;;;;1.58;1.30;;;14.50;27.80;;;;;;10183095;28;20054;-63
2021/04/25 20:40:46;;;;;;;3.25;1.48;;;14.40;27.90;;;;;;10179975;28;20133;-65
2021/04/25 20:45:38;;;;;;;2.75;1.92;;;14.40;28.00;;;;;;10183776;28;20084;-59
2021/04/25 20:50:30;;;;;;;2.95;1.40;;;14.30;28.20;;;;;;10178990;28;20040;-51
2021/04/25 20:55:22;;;;;;;2.28;1.40;;;14.20;28.30;;;;;;10183558;28;20032;-57
2021/04/25 21:00:16;;;;;;;3.03;1.42;;;14.10;28.60;;;;;;10183329;28;20073;-59
2021/04/25 21:05:09;;;;;;;3.90;1.70;;;14.00;29.00;;;;;;10183585;28;20098;-53
2021/04/25 21:10:00;;;;;;;2.92;1.85;;;13.90;29.20;;;;;;10187233;27;20027;-56
2021/04/25 21:14:53;;;;;;;2.60;1.20;;;13.80;29.60;;;;;;10178416;27;20057;-59
2021/04/25 21:19:44;;;;;;;2.55;1.35;;;13.80;29.60;;;;;;10187561;27;20036;-59
2021/04/25 21:24:36;;;;;;;2.88;1.58;;;13.70;29.90;;;;;;10197168;27;20039;-58
2021/04/25 21:29:28;;;;;;;5.93;2.03;;;13.60;30.20;;;;;;10157760;27;20027;-57
2021/04/25 21:34:21;;;;;;;4.03;1.60;;;13.50;30.80;;;;;;10188334;27;20054;-59
2021/04/25 21:39:12;;;;;;;4.88;1.88;;;13.40;31.00;;;;;;10187423;27;20764;-57
2021/04/25 21:44:03;;;;;;;3.00;2.00;;;13.40;31.20;;;;;;10193014;27;20040;-60
2021/04/25 21:48:54;;;;;;;2.42;1.27;;;13.30;31.70;;;;;;10199360;27;20044;-56
2021/04/25 21:53:45;;;;;;;2.22;1.60;;;13.30;32.20;;;;;;10190814;27;20043;-60
2021/04/25 21:58:35;;;;;;;3.85;2.55;;;13.20;32.40;;;;;;10179441;27;20036;-60
2021/04/25 22:03:28;;;;;;;3.10;1.77;;;13.10;32.50;;;;;;10185261;27;20099;-58
2021/04/25 22:08:21;;;;;;;2.58;1.67;;;13.20;32.80;;;;;;10183975;27;20027;-59
2021/04/25 22:13:13;;;;;;;8.20;1.50;;;13.10;32.70;;;;;;10189853;27;20092;-59
2021/04/25 22:18:04;;;;;;;3.00;1.50;;;13.10;32.80;;;;;;10174703;27;20031;-56
2021/04/25 22:22:56;;;;;;;4.38;1.50;;;13.00;33.00;;;;;;10181082;27;20024;-65
2021/04/25 22:27:46;;;;;;;4.20;1.42;;;13.00;33.40;;;;;;10188101;27;20028;-62
2021/04/25 22:32:38;;;;;;;3.05;1.60;;;12.90;33.60;;;;;;10189643;27;20040;-59
2021/04/25 22:37:29;;;;;;;1.98;1.38;;;12.80;33.80;;;;;;10186629;27;20038;-59
2021/04/25 22:42:19;;;;;;;4.15;1.90;;;12.90;33.50;;;;;;10193098;27;20032;-56
2021/04/25 22:47:10;;;;;;;3.83;1.63;;;12.90;33.30;;;;;;10173496;27;20136;-58
2021/04/25 22:52:01;;;;;;;1.33;1.10;;;12.70;33.90;;;;;;10192392;27;20041;-56
2021/04/25 22:56:52;;;;;;;4.32;1.25;;;12.60;34.00;;;;;;10178576;27;20038;-60
2021/04/25 23:01:43;;;;;;;2.50;1.40;;;12.60;34.20;;;;;;10187576;27;20032;-58
2021/04/25 23:06:34;;;;;;;1.98;1.27;;;12.30;34.30;;;;;;10185410;27;20059;-54
2021/04/25 23:11:24;;;;;;;2.65;1.70;;;12.10;34.30;;;;;;10181879;27;20604;-58
2021/04/25 23:16:15;;;;;;;1.70;1.27;;;12.00;34.70;;;;;;10173804;27;20041;-57
2021/04/25 23:21:06;;;;;;;1.88;1.30;;;12.00;34.70;;;;;;10168319;28;20023;-59
2021/04/25 23:25:57;;;;;;;1.75;1.10;;;11.90;35.00;;;;;;10159835;28;20040;-59
2021/04/25 23:30:47;;;;;;;4.20;1.92;;;11.70;35.40;;;;;;10179455;27;20172;-58
2021/04/25 23:35:38;;;;;;;1.98;1.48;;;11.60;35.50;;;;;;10176981;27;20082;-59
2021/04/25 23:40:29;;;;;;;2.33;1.20;;;11.60;35.70;;;;;;10181020;27;20028;-62
2021/04/25 23:45:23;;;;;;;4.68;1.33;;;11.50;36.10;;;;;;10193821;27;20059;-58
2021/04/25 23:50:14;;;;;;;1.63;1.40;;;11.40;36.20;;;;;;10176529;27;20537;-59
2021/04/25 23:55:06;;;;;;;1.65;1.30;;;11.30;36.80;;;;;;10181079;27;20031;-56
2021/04/25 23:59:56;;;;;;;2.30;1.98;;;11.20;37.10;;;;;;10177815;28;20637;-60
